ETEB 170456Z AUTO 00000KT 0400 FG VV001 01/01 A3004 RMK AO2 SLP211 T00060006 RVRNO FZRANO $ EDMA 170550Z 15006KT 0650 R07/1000N FZFG VV002 M01/M01 Q1018 ETIK 170556Z AUTO 00000KT 9999 BKN008 OVC013 02/02 A3008 RMK AO2 CIG 008V012 SLP205 T00150015 10021 20011 52017 $ EDDT 170550Z 18003KT 150V220 CAVOK 00/M03 Q1017 TEMPO BKN009 LSZB 170550Z 13004KT 2500 -RASN BR SCT006 BKN010 01/01 Q1019 NOSIG LIPB 170550Z 00000KT CAVOK M05/M07 Q1019 EDVE 170550Z 15003KT 8000 FEW009 BKN022 01/M01 Q1017 EDDW 170550Z 14005KT 2700 BR OVC003 02/02 Q1016 R88/290195 TEMPO 0600 FG OVC001 LFMD 170530Z AUTO VRB02KT 9999 BKN011 OVC029 09/08 Q1014 BECMG RA SCT020 EDLW 170550Z 17010KT 9999 OVC031 03/02 Q1014 EDDC 170550Z 22005KT 9999 -SN SCT009 BKN013 00/M01 Q1017 TEMPO -FZDZ BKN009 EDDL 170550Z 15013KT 9999 -RADZ FEW025 BKN040 04/02 Q1015 TEMPO RA EDDE 170550Z 20004KT 9999 FEW020 BKN040 M00/M02 Q1017 NOSIG LIRQ 170550Z VRB04KT 9999 FEW080 05/00 Q1014 EDDF 170550Z VRB02KT 0400 R25R/1100N R25C/1100N R25L/0900V1100N R18/0600N FG BKN001 01/01 Q1018 R88/CLRD// TEMPO 1500 BR BKN003 EDNY 170550Z 03003KT 1200 R06/P2000N BR OVC002 M00/M00 Q1019 ETHF 170541Z VRB03KT 5000 BR OVC005 01/01 Q1017 YLO GRN TEMPO RED LIMJ 170550Z 05013KT 9999 FEW022 BKN049 04/M00 Q1016 ETIC 170526Z AUTO 00000KT 4400 BR OVC004 M01/M01 A3005 RMK AO2 SLP205 $ LOWG 170550Z 00000KT 5000 BR BKN220 M08/M09 Q1019 R17/19//95 TEMPO 2000 EDDH 170550Z 16005KT 120V180 1800 BR OVC002 00/M00 Q1016 R88/290195 BECMG 0800 OVC001 EDDV 170550Z 17006KT 140V200 7000 OVC007 02/00 Q1016 BECMG BKN025 EDQM 170550Z 23008KT 3000 BR OVC002 M01/M01 Q1016 ETIH 170556Z AUTO 00000KT 5000 BR OVC004 M01/M01 A3008 RMK AO2 SLP215 60000 T10121012 11012 21016 52016 $ ETSI 170520Z 23002KT 0200 R25/0900U FZFG VV000 M01/M01 Q1018 RED RED LOWI 170550Z 26002KT 9999 FEW010 BKN200 M04/M05 Q1019 R08/19//95 NOSIG LOWK 170550Z 31003KT 9999 FEW006 BKN200 M06/M07 Q1019 NOSIG EDDK 170550Z 12004KT 070V150 9999 FEW018 BKN040 03/02 Q1016 R14L/190095 R14R///99// R06/190095 NOSIG EDDP 170550Z 21008KT 9999 SCT027 BKN043 01/M01 Q1017 NOSIG LOWL 170550Z 26004KT 8000 FEW006 BKN007 M02/M04 Q1020 R08/450195 NOSIG LSZA 170550Z VRB02KT 5000 BR SCT025 SCT160 00/M02 Q1018 NOSIG EDHL 170550Z VRB02KT 7000 OVC004 M01/M02 Q1017 LIML 170550Z VRB01KT 5000 BR BKN035 02/01 Q1019 NOSIG LFML 170530Z AUTO 33005KT 300V360 CAVOK 06/05 Q1019 NOSIG LFMT 170530Z AUTO 28011KT CAVOK 09/02 Q1021 NOSIG EDDM 170550Z VRB01KT 5000 BR OVC005 M01/M02 Q1018 R88/290095 TEMPO 4000 EDDG 170550Z VRB03KT 8000 BKN029 01/01 Q1015 NOSIG ETSN 170520Z 17003KT 0100 FZFG VV000 M01/M01 Q1018 RED RED ETHN 170520Z 16003KT 1200 BR BKN001 OVC004 01/01 Q1017 RED YLO TEMPO RED LFMN 170530Z 10009KT 9999 OVC010 10/09 Q1014 NOSIG EDDN 170550Z 11004KT 3000 BR BKN003 BKN007 01/00 Q1018 R10/19//95 TEMPO 2000 EDMO 170550Z 21002KT 0450 R22/0550U FZFG NSC M04/M05 Q1017 EDLP 170550Z 15009KT CAVOK 03/01 Q1015 LIPR 170550Z AUTO 27009KT 3300 -PL BR OVC007/// 01/00 Q1017 EDDR 170550Z 19008KT 9999 BKN004 02/01 Q1017 R27/29//95 TEMPO 0600 FG LOWS 170550Z 16003KT 130V190 CAVOK M04/M06 Q1018 R15/19//95 NOSIG LSGS 170550Z VRB02KT 3300 BR BKN013 01/01 Q1019 EDDS 170550Z 00000KT 9000 2000N BCFG FEW001 M03/M03 Q1018 TEMPO 0800 FZFG BKN001 LFTH 170530Z AUTO 32013KT 280V340 CAVOK 11/04 Q1015 NOSIG LIMF 170550Z 05002KT 1400 R36/P1500N BR OVC011 01/01 Q1018 LIPI 170455Z /////KT 9999 SCT050 BKN110 01/M03 Q1017 RMK OVC VIS MIN 9999 WIND THR06 01003KT WIND THR24 01003KT BLU LIPZ 170550Z 36007KT 9999 BKN030 04/M01 Q1017 NOSIG LIPX 170550Z 24003KT 6000 BKN040 01/M00 Q1018 LOWW 170550Z 14003KT 9000 FEW020 BKN054 M03/M05 Q1020 R11/15//95 R16/12//95 NOSIG LSZH 170550Z 15002KT 0800 0250N R14/1300U R16/0800D R28/P2000N R34/1300U PRFG VV002 01/00 Q1019 TEMPO 0300 FG VV001

METAR Messwerte

Klicken Sie auf einen Ort, um die 36h-Historie abzurufen

Ort
m ü. NN
Zeit Temperatur Taupunkt Rel.
Luftfeuchte
Luftdruck:
Altimeter
NN
Station
Wind in Beaufort
(Knoten)
Sichtweite
(Meter)
Wolken
(Meter über Grund)
Wettererscheinung
Ansbach
467
Mo 17.12. 05:5611100 %1017
1020
962
Windstill400 Nebel
Augsburg
463
Mo 17.12. 06:50-1-1100 %1018
1021
963
SSO 2 (6)650 Nebel
Bad Windsheim / Illesheim
325
Mo 17.12. 06:5622100 %1019
1021
980
Windstill>= 10000Bedeckt (400)
Stark bewölkt (240)
 
Berlin-Tegel
37
Mo 17.12. 06:500-380 %1017
1017
1013
S 2 (3)
SSO - SW
>= 10000Nicht signifikant 
Bern/Belp
505
Mo 17.12. 06:5011100 %1019
1022
960
SO 2 (4)2500Stark bewölkt (300)
Wolkig (180)
Regen/Schneefall (schwach)
Nebeldunst
Bozen
241
Mo 17.12. 06:50-5-786 %1019
1021
990
Windstill>= 10000Nicht signifikant 
Braunschweig
88
Mo 17.12. 06:501-186 %1017
1018
1006
SSO 2 (3)8000Stark bewölkt (670)
Leicht bewölkt (270)
 
Bremen
5
Mo 17.12. 06:5022100 %1016
1016
1015
SO 2 (5)2700Bedeckt (91)Nebeldunst
Bald möglich: Nebel
Cannes
9
Mo 17.12. 06:309893 %1014
1014
1013
Uml 1 (2)>= 10000Bedeckt (880)
Stark bewölkt (340)
 Bald Übergang zu: Regen
Dortmund/Wickede
127
Mo 17.12. 06:503293 %1014
1015
999
S 3 (10)>= 10000Bedeckt (940) 
Dresden-Klotzsche
226
Mo 17.12. 06:500-193 %1017
1019
990
SW 2 (5)>= 10000Stark bewölkt (400)
Wolkig (270)
Schneefall (schwach)
Bald möglich: Nieselregen (gefrierend, schwach)
Düsseldorf
44
Mo 17.12. 06:504287 %1015
1015
1010
SSO 4 (13)>= 10000Stark bewölkt (1200)
Leicht bewölkt (760)
Regen/Nieselregen (schwach)
Bald möglich: Regen
Erfurt-Bindersleben
323
Mo 17.12. 06:50-0-286 %1017
1019
979
SSW 2 (4)>= 10000Stark bewölkt (1200)
Leicht bewölkt (610)
 
Florenz
38
Mo 17.12. 06:505070 %1014
1014
1009
Uml 2 (4)>= 10000Leicht bewölkt (2400) 
Frankfurt
113
Mo 17.12. 06:5011100 %1018
1019
1004
Uml 1 (2)400Stark bewölkt (30)Nebel
Bald möglich: Nebeldunst
Friedrichshafen
424
Mo 17.12. 06:50-0-0100 %1019
1022
969
NNO 2 (3)1200Bedeckt (61)Nebeldunst
Fritzlar
181
Mo 17.12. 06:4111100 %1017
1018
995
Uml 2 (3)5000Bedeckt (150)Nebeldunst
Genua
3
Mo 17.12. 06:504-075 %1016
1016
1016
NO 4 (13)>= 10000Stark bewölkt (1500)
Leicht bewölkt (670)
 
Grafenwöhr
415
Mo 17.12. 06:26-1-1100 %1018
1021
969
Windstill4400Bedeckt (120)Nebeldunst
Graz-Thalerhof
347
Mo 17.12. 06:50-8-992 %1019
1023
978
Windstill5000Stark bewölkt (6700)Nebeldunst
Hamburg-Fuhlsbüttel
16
Mo 17.12. 06:500-0100 %1016
1016
1014
SSO 2 (5)
OSO - S
1800Bedeckt (61)Nebeldunst
Hannover
54
Mo 17.12. 06:502087 %1016
1016
1010
S 2 (6)
SO - SSW
7000Bedeckt (210) 
Hof
568
Mo 17.12. 06:50-1-1100 %1016
1020
949
SW 3 (8)3000Bedeckt (61)Nebeldunst
Hohenfels
442
Mo 17.12. 06:56-1-1100 %1019
1022
967
Windstill5000Bedeckt (120)Nebeldunst
Ingolstadt
370
Mo 17.12. 06:20-1-1100 %1018
1021
974
SW 1 (2)200 Nebel
Innsbruck
581
Mo 17.12. 06:50-4-593 %1019
1024
951
W 1 (2)>= 10000Stark bewölkt (6100)
Leicht bewölkt (300)
 
Klagenfurt
441
Mo 17.12. 06:50-6-793 %1019
1023
967
NW 2 (3)>= 10000Stark bewölkt (6100)
Leicht bewölkt (180)
 
Köln/Bonn
99
Mo 17.12. 06:503293 %1016
1017
1004
OSO 2 (4)
ONO - SSO
>= 10000Stark bewölkt (1200)
Leicht bewölkt (550)
 
Leipzig-Schkeuditz
149
Mo 17.12. 06:501-186 %1017
1018
999
SSW 3 (8)>= 10000Stark bewölkt (1300)
Wolkig (820)
 
Linz/Hörsching
313
Mo 17.12. 06:50-2-486 %1020
1022
983
W 2 (4)8000Stark bewölkt (210)
Leicht bewölkt (180)
 
Lugano
276
Mo 17.12. 06:500-286 %1018
1020
985
Uml 1 (2)5000Wolkig (4900)
Wolkig (760)
Nebeldunst
Lübeck-Blankensee
16
Mo 17.12. 06:50-1-293 %1017
1017
1015
Uml 1 (2)7000Bedeckt (120) 
Mailand
103
Mo 17.12. 06:502193 %1019
1020
1007
Uml 1 (1)5000Stark bewölkt (1100)Nebeldunst
Marseille/Marignane
36
Mo 17.12. 06:306593 %1019
1019
1015
NNW 2 (5)
WNW - N
>= 10000Nicht signifikant 
Montpellier
6
Mo 17.12. 06:309261 %1021
1021
1020
W 4 (11)>= 10000Nicht signifikant 
München
447
Mo 17.12. 06:50-1-293 %1018
1021
965
Uml 1 (1)5000Bedeckt (150)Nebeldunst
Münster/Osnabrück
52
Mo 17.12. 06:5011100 %1015
1015
1009
Uml 2 (3)8000Stark bewölkt (880) 
Neuburg/Donau
387
Mo 17.12. 06:20-1-1100 %1018
1021
972
S 2 (3)100 Nebel
Niederstetten
473
Mo 17.12. 06:2011100 %1017
1020
961
SSO 2 (3)1200Bedeckt (120)
Stark bewölkt (30)
Nebeldunst
Nizza
10
Mo 17.12. 06:3010993 %1014
1014
1013
O 3 (9)>= 10000Bedeckt (300) 
Nürnberg
312
Mo 17.12. 06:501093 %1018
1020
981
OSO 2 (4)3000Stark bewölkt (210)
Stark bewölkt (91)
Nebeldunst
Oberpfaffenhofen
600
Mo 17.12. 06:50-4-593 %1017
1022
947
SSW 1 (2)450Nicht signifikantNebel
Paderborn/Lippstadt
213
Mo 17.12. 06:503187 %1015
1016
990
SSO 3 (9)>= 10000Nicht signifikant 
Rimini
13
Mo 17.12. 06:501093 %1017
1017
1015
W 3 (9)3300Bedeckt (210)Eiskörner (schwach)
Nebeldunst
Saarbrücken/Ensheim
320
Mo 17.12. 06:502193 %1017
1019
979
S 3 (8)>= 10000Stark bewölkt (120) Bald möglich: Nebel
Salzburg
450
Mo 17.12. 06:50-4-686 %1018
1022
965
SSO 2 (3)
SO - S
>= 10000Nicht signifikant 
Sion
481
Mo 17.12. 06:5011100 %1019
1022
962
Uml 1 (2)3300Stark bewölkt (400)Nebeldunst
Stuttgart
419
Mo 17.12. 06:50-3-3100 %1018
1021
968
Windstill9000Leicht bewölkt (30)Nebel-Bänke
Bald möglich: Nebel
Toulon
4
Mo 17.12. 06:3011462 %1015
1015
1015
NW 4 (13)
W - NNW
>= 10000Nicht signifikant 
Turin
287
Mo 17.12. 06:5011100 %1018
1020
984
NO 1 (2)1400Bedeckt (340)Nebeldunst
Udine/Rivolto
53
Mo 17.12. 05:551-375 %1017
1017
1011
N 2 (3)>= 10000Stark bewölkt (3400)
Wolkig (1500)
 
Venedig
6
Mo 17.12. 06:504-170 %1017
1017
1016
N 3 (7)>= 10000Stark bewölkt (910) 
Verona/Villafranca
68
Mo 17.12. 06:501-093 %1018
1018
1010
WSW 2 (3)6000Stark bewölkt (1200) 
Wien/Schwechat
190
Mo 17.12. 06:50-3-586 %1020
1022
997
SO 2 (3)9000Stark bewölkt (1600)
Leicht bewölkt (610)
 
Zürich-Kloten
432
Mo 17.12. 06:501093 %1019
1022
968
SSO 1 (2)800 Nebel-Schwaden
Bald möglich: Nebel

Altimeter: Einstellung am Altimeter (Höhenmesser), die Höhe 0 muss auf diesen Luftdruckwert zeigen, damit das Gerät die Stationshöhe richtig anzeigt.

NN: Luftdruck reduziert auf "Normal Null", auf Meereshöhe, dieser von der Temperatur abhängige Wert wird bisweilen unkorrekt einfach als "Luftdruck" bezeichnet. Eigentlich nur eine fiktive Größe, die es erlaubt, Stationen auf unterschiedlichen Höhen miteinander zu vergleichen.

Station: Realer Luftdruck an der Station.